Aniara — SKJC — position and weather

sailwx.info

Track history (hours):
 
Tides and Currents Weather Stations Pressure Air Temp Water Temp Dewpoint Dewpoint Depression Visibility Wind Speed Wind Dir Waves Ship Positions

Aniara

Last reported at 2016-Aug-10 12:33 UTC. Time now 2016-Aug-26 23:29 UTC.
Position S 26°40' E 153°13'.
Warning: this ship's position is 16 days out of date.

Length 232 m; draft 8.1 m.

Type: Cargo ship. MMSI: 266282000.

Date/timePositionNaut miles runAvg speedWind from/ knotsBaromVisibWave heightAir tempDewpointWater temp
2016-Aug-10 12:33S 26°40' E 153°13'1212.4
2016-Aug-10 11:34S 26°52' E 153°10'1616.4
2016-Aug-10 10:34S 27°06' E 153°19'1414.1
2016-Aug-10 09:33S 27°19' E 153°12'4 4.5
2016-Aug-10 08:33S 27°23' E 153°10'0 0.0
2016-Aug-10 07:31S 27°23' E 153°10'0 0.0
2016-Aug-10 06:28S 27°23' E 153°10'0 0.0
2016-Aug-10 05:31S 27°23' E 153°10'0 0.0
2016-Aug-10 04:31S 27°23' E 153°10'0 0.0
2016-Aug-10 03:31S 27°23' E 153°10'0 0.0
2016-Aug-10 02:31S 27°23' E 153°10'0 0.0
2016-Aug-10 01:31S 27°23' E 153°10'0 0.0
2016-Aug-10 00:31S 27°23' E 153°10'0 0.0
2016-Aug-09 23:33S 27°23' E 153°10'8 8.1
2016-Aug-09 22:33S 27°16' E 153°15'1313.0
2016-Aug-09 21:33S 27°04' E 153°18'1515.3
2016-Aug-09 20:33S 26°51' E 153°09'8 8.1
2016-Aug-09 19:33S 26°46' E 153°16'1514.4
2016-Aug-09 18:31S 26°52' E 153°31'1313.3
2016-Aug-09 17:32S 27°04' E 153°37'3514.4
2016-Aug-09 15:04S 27°39' E 153°41'26814.5
2016-Aug-08 20:33S 32°03' E 152°50'1815.9
2016-Aug-08 19:25S 32°20' E 152°43'1315.6
2016-Aug-08 18:33S 32°32' E 152°36'1615.6
2016-Aug-08 17:33S 32°45' E 152°26'1615.7
2016-Aug-08 16:33S 32°57' E 152°15'1515.3
2016-Aug-08 15:33S 33°10' E 152°04'285 7.0
2016-Aug-06 23:05S 37°37' E 150°03'  
Track history (hours):
 
Tides and Currents Weather Stations Pressure Air Temp Water Temp Dewpoint Dewpoint Depression Visibility Wind Speed Wind Dir Waves Ship Positions

Aniara

Last reported at 2016-Aug-10 12:33 UTC. Time now 2016-Aug-26 23:29 UTC.
Position S 26°40' E 153°13'.
Warning: this ship's position is 16 days out of date.

Length 232 m; draft 8.1 m.

Type: Cargo ship. MMSI: 266282000.

Date/timePositionNaut miles runAvg speedWind from/ knotsBaromVisibWave heightAir tempDewpointWater temp
2016-Aug-10 12:33S 26°40' E 153°13'1212.4
2016-Aug-10 11:34S 26°52' E 153°10'1616.4
2016-Aug-10 10:34S 27°06' E 153°19'1414.1
2016-Aug-10 09:33S 27°19' E 153°12'4 4.5
2016-Aug-10 08:33S 27°23' E 153°10'0 0.0
2016-Aug-10 07:31S 27°23' E 153°10'0 0.0
2016-Aug-10 06:28S 27°23' E 153°10'0 0.0
2016-Aug-10 05:31S 27°23' E 153°10'0 0.0
2016-Aug-10 04:31S 27°23' E 153°10'0 0.0
2016-Aug-10 03:31S 27°23' E 153°10'0 0.0
2016-Aug-10 02:31S 27°23' E 153°10'0 0.0
2016-Aug-10 01:31S 27°23' E 153°10'0 0.0
2016-Aug-10 00:31S 27°23' E 153°10'0 0.0
2016-Aug-09 23:33S 27°23' E 153°10'8 8.1
2016-Aug-09 22:33S 27°16' E 153°15'1313.0
2016-Aug-09 21:33S 27°04' E 153°18'1515.3
2016-Aug-09 20:33S 26°51' E 153°09'8 8.1
2016-Aug-09 19:33S 26°46' E 153°16'1514.4
2016-Aug-09 18:31S 26°52' E 153°31'1313.3
2016-Aug-09 17:32S 27°04' E 153°37'3514.4
2016-Aug-09 15:04S 27°39' E 153°41'26814.5
2016-Aug-08 20:33S 32°03' E 152°50'1815.9
2016-Aug-08 19:25S 32°20' E 152°43'1315.6
2016-Aug-08 18:33S 32°32' E 152°36'1615.6
2016-Aug-08 17:33S 32°45' E 152°26'1615.7
2016-Aug-08 16:33S 32°57' E 152°15'1515.3
2016-Aug-08 15:33S 33°10' E 152°04'285 7.0
2016-Aug-06 23:05S 37°37' E 150°03'  

Dump ship's entire track history